<?xml version="1.0" encoding="UTF-8" standalone="no" ?>
<gpx xmlns="http://www.topografix.com/GPX/1/1" xmlns:xsi="http://www.w3.org/2001/XMLSchema-instance" xsi:schemaLocation="http://www.topografix.com/GPX/1/1 http://www.topografix.com/GPX/1/1/gpx.xsd" version="1.1" creator="VisuGPX - https://www.visugpx.com">
  <metadata>
    <name>rando ecole mirabel CM 2019-09-05 15:51</name>
    <desc><![CDATA[<h1>OruxMaps</h1><br /><hr align="center" width="480" style="height: 2px; width: 517px"/><h2>Nom: 2019-09-05 15:51</h2><br /><p>Temps de départ: 09/05/2019 15:51</p><p>Temps d'arrivée: 09/05/2019 17:00</p><p>Distance: 7 km (01:08)</p><p>Temps déplacement: 00:44</p><p>Vitesse moyenne: 6,1 km/h</p><p>Vitesse moyenne: 9,5 km/h</p><p>Vitess Max.: 43,3 km/h</p><p>Altitude minimale: 115 m</p><p>Altitude maximale: 203 m</p><p>Vitesse d'élévation: 338,2 m/h</p><p>Vitesse de descente: -366,5 m/h</p><p>Gain Altitude: 178 m</p><p>Perte Altitude: -180 m</p><p>Temps d'élévation: 00:31</p><p>Temps de descente: 00:29</p><hr align="center" width="480" style="height: 2px; width: 517px"/>]]></desc>
  </metadata>
  <trk>
    <name><![CDATA[2019-09-05 15:51]]></name>
    <desc><![CDATA[<h1>OruxMaps</h1><br /><hr align="center" width="480" style="height: 2px; width: 517px"/><h2>Nom: 2019-09-05 15:51</h2><br /><p>Temps de départ: 09/05/2019 15:51</p><p>Temps d'arrivée: 09/05/2019 17:00</p><p>Distance: 7 km (01:08)</p><p>Temps déplacement: 00:44</p><p>Vitesse moyenne: 6,1 km/h</p><p>Vitesse moyenne: 9,5 km/h</p><p>Vitess Max.: 43,3 km/h</p><p>Altitude minimale: 115 m</p><p>Altitude maximale: 203 m</p><p>Vitesse d'élévation: 338,2 m/h</p><p>Vitesse de descente: -366,5 m/h</p><p>Gain Altitude: 178 m</p><p>Perte Altitude: -180 m</p><p>Temps d'élévation: 00:31</p><p>Temps de descente: 00:29</p><hr align="center" width="480" style="height: 2px; width: 517px"/>]]></desc>
    <trkseg>
      <trkpt lat="44.14309" lon="1.42158">
        <ele>203.65</ele>
        <time>2019-09-05T13:51:48Z</time>
      </trkpt>
      <trkpt lat="44.14319" lon="1.42193">
        <ele>201.91</ele>
        <time>2019-09-05T13:53:46Z</time>
      </trkpt>
      <trkpt lat="44.14316" lon="1.42232">
        <ele>198.32</ele>
        <time>2019-09-05T13:53:50Z</time>
      </trkpt>
      <trkpt lat="44.14304" lon="1.42332">
        <ele>192.19</ele>
        <time>2019-09-05T13:54:04Z</time>
      </trkpt>
      <trkpt lat="44.14309" lon="1.4237">
        <ele>192.61</ele>
        <time>2019-09-05T13:54:08Z</time>
      </trkpt>
      <trkpt lat="44.14314" lon="1.42397">
        <ele>193.4</ele>
        <time>2019-09-05T13:54:12Z</time>
      </trkpt>
      <trkpt lat="44.14315" lon="1.42435">
        <ele>193.35</ele>
        <time>2019-09-05T13:54:18Z</time>
      </trkpt>
      <trkpt lat="44.14309" lon="1.42463">
        <ele>192.56</ele>
        <time>2019-09-05T13:54:22Z</time>
      </trkpt>
      <trkpt lat="44.14302" lon="1.42497">
        <ele>191.92</ele>
        <time>2019-09-05T13:54:28Z</time>
      </trkpt>
      <trkpt lat="44.14289" lon="1.42522">
        <ele>191.95</ele>
        <time>2019-09-05T13:54:34Z</time>
      </trkpt>
      <trkpt lat="44.14268" lon="1.42527">
        <ele>191.27</ele>
        <time>2019-09-05T13:54:40Z</time>
      </trkpt>
      <trkpt lat="44.14251" lon="1.42536">
        <ele>191.78</ele>
        <time>2019-09-05T13:54:46Z</time>
      </trkpt>
      <trkpt lat="44.13944" lon="1.42814">
        <ele>165.94</ele>
        <time>2019-09-05T13:56:23Z</time>
      </trkpt>
      <trkpt lat="44.13924" lon="1.42803">
        <ele>159.73</ele>
        <time>2019-09-05T13:56:25Z</time>
      </trkpt>
      <trkpt lat="44.13908" lon="1.42822">
        <ele>158.7</ele>
        <time>2019-09-05T13:56:33Z</time>
      </trkpt>
      <trkpt lat="44.13895" lon="1.42844">
        <ele>157.9</ele>
        <time>2019-09-05T13:56:41Z</time>
      </trkpt>
      <trkpt lat="44.13891" lon="1.42871">
        <ele>158.75</ele>
        <time>2019-09-05T13:57:53Z</time>
      </trkpt>
      <trkpt lat="44.1389" lon="1.42897">
        <ele>160.11</ele>
        <time>2019-09-05T13:58:03Z</time>
      </trkpt>
      <trkpt lat="44.13884" lon="1.42927">
        <ele>160.75</ele>
        <time>2019-09-05T13:58:13Z</time>
      </trkpt>
      <trkpt lat="44.1388" lon="1.42953">
        <ele>161.81</ele>
        <time>2019-09-05T13:58:19Z</time>
      </trkpt>
      <trkpt lat="44.13877" lon="1.42978">
        <ele>162.98</ele>
        <time>2019-09-05T13:58:29Z</time>
      </trkpt>
      <trkpt lat="44.13859" lon="1.4298">
        <ele>160</ele>
        <time>2019-09-05T13:58:39Z</time>
      </trkpt>
      <trkpt lat="44.13842" lon="1.42971">
        <ele>156.39</ele>
        <time>2019-09-05T13:58:54Z</time>
      </trkpt>
      <trkpt lat="44.13828" lon="1.42956">
        <ele>153.36</ele>
        <time>2019-09-05T13:59:04Z</time>
      </trkpt>
      <trkpt lat="44.13727" lon="1.42798">
        <ele>134.82</ele>
        <time>2019-09-05T13:59:18Z</time>
      </trkpt>
      <trkpt lat="44.13713" lon="1.42762">
        <ele>131.58</ele>
        <time>2019-09-05T13:59:23Z</time>
      </trkpt>
      <trkpt lat="44.13718" lon="1.42734">
        <ele>129.59</ele>
        <time>2019-09-05T13:59:33Z</time>
      </trkpt>
      <trkpt lat="44.13731" lon="1.42706">
        <ele>128.01</ele>
        <time>2019-09-05T13:59:39Z</time>
      </trkpt>
      <trkpt lat="44.13744" lon="1.42671">
        <ele>126.01</ele>
        <time>2019-09-05T13:59:45Z</time>
      </trkpt>
      <trkpt lat="44.13751" lon="1.42647">
        <ele>125.62</ele>
        <time>2019-09-05T13:59:49Z</time>
      </trkpt>
      <trkpt lat="44.13759" lon="1.42616">
        <ele>125.4</ele>
        <time>2019-09-05T13:59:55Z</time>
      </trkpt>
      <trkpt lat="44.1352" lon="1.42581">
        <ele>115.78</ele>
        <time>2019-09-05T14:01:20Z</time>
      </trkpt>
      <trkpt lat="44.13522" lon="1.42555">
        <ele>116.35</ele>
        <time>2019-09-05T14:02:29Z</time>
      </trkpt>
      <trkpt lat="44.13519" lon="1.42519">
        <ele>116.79</ele>
        <time>2019-09-05T14:02:37Z</time>
      </trkpt>
      <trkpt lat="44.13517" lon="1.42494">
        <ele>116.99</ele>
        <time>2019-09-05T14:02:41Z</time>
      </trkpt>
      <trkpt lat="44.13518" lon="1.42468">
        <ele>117.68</ele>
        <time>2019-09-05T14:02:45Z</time>
      </trkpt>
      <trkpt lat="44.13517" lon="1.42431">
        <ele>118.49</ele>
        <time>2019-09-05T14:02:51Z</time>
      </trkpt>
      <trkpt lat="44.13498" lon="1.42404">
        <ele>116.99</ele>
        <time>2019-09-05T14:02:57Z</time>
      </trkpt>
      <trkpt lat="44.13481" lon="1.42388">
        <ele>117.08</ele>
        <time>2019-09-05T14:03:03Z</time>
      </trkpt>
      <trkpt lat="44.13474" lon="1.42365">
        <ele>117.46</ele>
        <time>2019-09-05T14:03:15Z</time>
      </trkpt>
      <trkpt lat="44.13457" lon="1.42349">
        <ele>118.16</ele>
        <time>2019-09-05T14:04:17Z</time>
      </trkpt>
      <trkpt lat="44.13448" lon="1.42324">
        <ele>119.48</ele>
        <time>2019-09-05T14:04:29Z</time>
      </trkpt>
      <trkpt lat="44.13446" lon="1.42297">
        <ele>121.35</ele>
        <time>2019-09-05T14:04:39Z</time>
      </trkpt>
      <trkpt lat="44.13446" lon="1.42269">
        <ele>123.25</ele>
        <time>2019-09-05T14:04:45Z</time>
      </trkpt>
      <trkpt lat="44.1345" lon="1.42239">
        <ele>124.79</ele>
        <time>2019-09-05T14:04:55Z</time>
      </trkpt>
      <trkpt lat="44.13448" lon="1.42213">
        <ele>126.77</ele>
        <time>2019-09-05T14:05:01Z</time>
      </trkpt>
      <trkpt lat="44.13443" lon="1.42185">
        <ele>129.51</ele>
        <time>2019-09-05T14:05:11Z</time>
      </trkpt>
      <trkpt lat="44.13442" lon="1.42157">
        <ele>131.48</ele>
        <time>2019-09-05T14:05:23Z</time>
      </trkpt>
      <trkpt lat="44.13437" lon="1.42131">
        <ele>133.4</ele>
        <time>2019-09-05T14:05:35Z</time>
      </trkpt>
      <trkpt lat="44.13427" lon="1.42107">
        <ele>136.21</ele>
        <time>2019-09-05T14:05:45Z</time>
      </trkpt>
      <trkpt lat="44.13412" lon="1.42092">
        <ele>138.33</ele>
        <time>2019-09-05T14:05:55Z</time>
      </trkpt>
      <trkpt lat="44.13396" lon="1.42076">
        <ele>138.58</ele>
        <time>2019-09-05T14:06:07Z</time>
      </trkpt>
      <trkpt lat="44.13381" lon="1.42098">
        <ele>136.04</ele>
        <time>2019-09-05T14:06:19Z</time>
      </trkpt>
      <trkpt lat="44.13367" lon="1.42117">
        <ele>133.29</ele>
        <time>2019-09-05T14:06:29Z</time>
      </trkpt>
      <trkpt lat="44.13349" lon="1.4213">
        <ele>130.33</ele>
        <time>2019-09-05T14:06:41Z</time>
      </trkpt>
      <trkpt lat="44.13326" lon="1.4212">
        <ele>129.44</ele>
        <time>2019-09-05T14:06:49Z</time>
      </trkpt>
      <trkpt lat="44.13305" lon="1.42108">
        <ele>128.54</ele>
        <time>2019-09-05T14:06:57Z</time>
      </trkpt>
      <trkpt lat="44.13282" lon="1.42098">
        <ele>126.67</ele>
        <time>2019-09-05T14:07:03Z</time>
      </trkpt>
      <trkpt lat="44.13262" lon="1.42076">
        <ele>125.49</ele>
        <time>2019-09-05T14:07:09Z</time>
      </trkpt>
      <trkpt lat="44.13242" lon="1.42056">
        <ele>125.78</ele>
        <time>2019-09-05T14:07:15Z</time>
      </trkpt>
      <trkpt lat="44.13226" lon="1.42031">
        <ele>127.24</ele>
        <time>2019-09-05T14:07:21Z</time>
      </trkpt>
      <trkpt lat="44.13212" lon="1.42009">
        <ele>127.46</ele>
        <time>2019-09-05T14:07:27Z</time>
      </trkpt>
      <trkpt lat="44.13198" lon="1.41991">
        <ele>127</ele>
        <time>2019-09-05T14:07:33Z</time>
      </trkpt>
      <trkpt lat="44.13178" lon="1.41973">
        <ele>125.75</ele>
        <time>2019-09-05T14:07:41Z</time>
      </trkpt>
      <trkpt lat="44.13161" lon="1.41956">
        <ele>125.25</ele>
        <time>2019-09-05T14:07:49Z</time>
      </trkpt>
      <trkpt lat="44.13144" lon="1.41934">
        <ele>126.24</ele>
        <time>2019-09-05T14:07:59Z</time>
      </trkpt>
      <trkpt lat="44.1313" lon="1.41912">
        <ele>127.03</ele>
        <time>2019-09-05T14:08:07Z</time>
      </trkpt>
      <trkpt lat="44.13118" lon="1.41892">
        <ele>128.82</ele>
        <time>2019-09-05T14:08:17Z</time>
      </trkpt>
      <trkpt lat="44.13105" lon="1.41875">
        <ele>129.92</ele>
        <time>2019-09-05T14:08:27Z</time>
      </trkpt>
      <trkpt lat="44.13091" lon="1.41858">
        <ele>130.64</ele>
        <time>2019-09-05T14:08:37Z</time>
      </trkpt>
      <trkpt lat="44.13075" lon="1.4184">
        <ele>131.36</ele>
        <time>2019-09-05T14:08:49Z</time>
      </trkpt>
      <trkpt lat="44.13058" lon="1.41828">
        <ele>131.8</ele>
        <time>2019-09-05T14:09:03Z</time>
      </trkpt>
      <trkpt lat="44.1304" lon="1.41819">
        <ele>131.89</ele>
        <time>2019-09-05T14:09:15Z</time>
      </trkpt>
      <trkpt lat="44.13022" lon="1.4181">
        <ele>131.58</ele>
        <time>2019-09-05T14:09:23Z</time>
      </trkpt>
      <trkpt lat="44.13001" lon="1.41802">
        <ele>130.78</ele>
        <time>2019-09-05T14:09:31Z</time>
      </trkpt>
      <trkpt lat="44.12984" lon="1.41785">
        <ele>132.29</ele>
        <time>2019-09-05T14:09:41Z</time>
      </trkpt>
      <trkpt lat="44.12974" lon="1.41761">
        <ele>132.72</ele>
        <time>2019-09-05T14:10:03Z</time>
      </trkpt>
      <trkpt lat="44.1296" lon="1.41742">
        <ele>133.12</ele>
        <time>2019-09-05T14:10:13Z</time>
      </trkpt>
      <trkpt lat="44.12947" lon="1.41719">
        <ele>133.48</ele>
        <time>2019-09-05T14:10:21Z</time>
      </trkpt>
      <trkpt lat="44.12943" lon="1.41693">
        <ele>133.52</ele>
        <time>2019-09-05T14:10:33Z</time>
      </trkpt>
      <trkpt lat="44.12939" lon="1.41667">
        <ele>133.36</ele>
        <time>2019-09-05T14:10:45Z</time>
      </trkpt>
      <trkpt lat="44.12931" lon="1.41642">
        <ele>134.01</ele>
        <time>2019-09-05T14:10:55Z</time>
      </trkpt>
      <trkpt lat="44.12926" lon="1.41617">
        <ele>134.69</ele>
        <time>2019-09-05T14:11:07Z</time>
      </trkpt>
      <trkpt lat="44.12922" lon="1.41592">
        <ele>135.32</ele>
        <time>2019-09-05T14:11:17Z</time>
      </trkpt>
      <trkpt lat="44.12913" lon="1.41566">
        <ele>136.59</ele>
        <time>2019-09-05T14:11:31Z</time>
      </trkpt>
      <trkpt lat="44.12895" lon="1.41581">
        <ele>135.41</ele>
        <time>2019-09-05T14:12:11Z</time>
      </trkpt>
      <trkpt lat="44.1288" lon="1.41565">
        <ele>136.4</ele>
        <time>2019-09-05T14:12:25Z</time>
      </trkpt>
      <trkpt lat="44.12877" lon="1.4154">
        <ele>137.67</ele>
        <time>2019-09-05T14:12:41Z</time>
      </trkpt>
      <trkpt lat="44.12885" lon="1.41517">
        <ele>139.35</ele>
        <time>2019-09-05T14:12:51Z</time>
      </trkpt>
      <trkpt lat="44.12888" lon="1.4149">
        <ele>141.1</ele>
        <time>2019-09-05T14:13:07Z</time>
      </trkpt>
      <trkpt lat="44.12893" lon="1.41463">
        <ele>143.01</ele>
        <time>2019-09-05T14:13:25Z</time>
      </trkpt>
      <trkpt lat="44.1289" lon="1.41436">
        <ele>144.2</ele>
        <time>2019-09-05T14:13:47Z</time>
      </trkpt>
      <trkpt lat="44.12889" lon="1.4141">
        <ele>145.24</ele>
        <time>2019-09-05T14:14:01Z</time>
      </trkpt>
      <trkpt lat="44.12893" lon="1.41383">
        <ele>146.96</ele>
        <time>2019-09-05T14:14:15Z</time>
      </trkpt>
      <trkpt lat="44.12896" lon="1.41357">
        <ele>148.54</ele>
        <time>2019-09-05T14:14:27Z</time>
      </trkpt>
      <trkpt lat="44.12915" lon="1.41368">
        <ele>151.14</ele>
        <time>2019-09-05T14:16:23Z</time>
      </trkpt>
      <trkpt lat="44.12936" lon="1.41368">
        <ele>153.55</ele>
        <time>2019-09-05T14:16:31Z</time>
      </trkpt>
      <trkpt lat="44.12952" lon="1.41385">
        <ele>154.41</ele>
        <time>2019-09-05T14:17:01Z</time>
      </trkpt>
      <trkpt lat="44.12967" lon="1.414">
        <ele>155.02</ele>
        <time>2019-09-05T14:17:05Z</time>
      </trkpt>
      <trkpt lat="44.12981" lon="1.41418">
        <ele>155.09</ele>
        <time>2019-09-05T14:17:09Z</time>
      </trkpt>
      <trkpt lat="44.13003" lon="1.41422">
        <ele>157.13</ele>
        <time>2019-09-05T14:17:23Z</time>
      </trkpt>
      <trkpt lat="44.13026" lon="1.4142">
        <ele>161.16</ele>
        <time>2019-09-05T14:17:35Z</time>
      </trkpt>
      <trkpt lat="44.13043" lon="1.41407">
        <ele>164.94</ele>
        <time>2019-09-05T14:17:57Z</time>
      </trkpt>
      <trkpt lat="44.1306" lon="1.41391">
        <ele>169.28</ele>
        <time>2019-09-05T14:18:25Z</time>
      </trkpt>
      <trkpt lat="44.13078" lon="1.41382">
        <ele>173.06</ele>
        <time>2019-09-05T14:18:55Z</time>
      </trkpt>
      <trkpt lat="44.13097" lon="1.41374">
        <ele>176.39</ele>
        <time>2019-09-05T14:19:27Z</time>
      </trkpt>
      <trkpt lat="44.13117" lon="1.41358">
        <ele>180.23</ele>
        <time>2019-09-05T14:20:05Z</time>
      </trkpt>
      <trkpt lat="44.13136" lon="1.41351">
        <ele>183.13</ele>
        <time>2019-09-05T14:20:25Z</time>
      </trkpt>
      <trkpt lat="44.13139" lon="1.41326">
        <ele>184.87</ele>
        <time>2019-09-05T14:20:52Z</time>
      </trkpt>
      <trkpt lat="44.13136" lon="1.41295">
        <ele>185.54</ele>
        <time>2019-09-05T14:21:00Z</time>
      </trkpt>
      <trkpt lat="44.1313" lon="1.41271">
        <ele>186.16</ele>
        <time>2019-09-05T14:21:06Z</time>
      </trkpt>
      <trkpt lat="44.13126" lon="1.41238">
        <ele>186.77</ele>
        <time>2019-09-05T14:21:16Z</time>
      </trkpt>
      <trkpt lat="44.13121" lon="1.41205">
        <ele>186.27</ele>
        <time>2019-09-05T14:21:22Z</time>
      </trkpt>
      <trkpt lat="44.13121" lon="1.41174">
        <ele>185.74</ele>
        <time>2019-09-05T14:21:28Z</time>
      </trkpt>
      <trkpt lat="44.1312" lon="1.41148">
        <ele>185.31</ele>
        <time>2019-09-05T14:21:34Z</time>
      </trkpt>
      <trkpt lat="44.13116" lon="1.41122">
        <ele>184.85</ele>
        <time>2019-09-05T14:21:44Z</time>
      </trkpt>
      <trkpt lat="44.13098" lon="1.41127">
        <ele>185.31</ele>
        <time>2019-09-05T14:22:02Z</time>
      </trkpt>
      <trkpt lat="44.13109" lon="1.41108">
        <ele>184.61</ele>
        <time>2019-09-05T14:22:34Z</time>
      </trkpt>
      <trkpt lat="44.1311" lon="1.41076">
        <ele>184.17</ele>
        <time>2019-09-05T14:22:44Z</time>
      </trkpt>
      <trkpt lat="44.13113" lon="1.41051">
        <ele>184.82</ele>
        <time>2019-09-05T14:22:50Z</time>
      </trkpt>
      <trkpt lat="44.13115" lon="1.41024">
        <ele>185.61</ele>
        <time>2019-09-05T14:22:58Z</time>
      </trkpt>
      <trkpt lat="44.13119" lon="1.40994">
        <ele>186.93</ele>
        <time>2019-09-05T14:23:10Z</time>
      </trkpt>
      <trkpt lat="44.13121" lon="1.40965">
        <ele>188.52</ele>
        <time>2019-09-05T14:23:20Z</time>
      </trkpt>
      <trkpt lat="44.13118" lon="1.40935">
        <ele>189.81</ele>
        <time>2019-09-05T14:23:30Z</time>
      </trkpt>
      <trkpt lat="44.13114" lon="1.40904">
        <ele>190.85</ele>
        <time>2019-09-05T14:23:40Z</time>
      </trkpt>
      <trkpt lat="44.13112" lon="1.40879">
        <ele>191.92</ele>
        <time>2019-09-05T14:23:46Z</time>
      </trkpt>
      <trkpt lat="44.13111" lon="1.40846">
        <ele>193.37</ele>
        <time>2019-09-05T14:23:54Z</time>
      </trkpt>
      <trkpt lat="44.13106" lon="1.40812">
        <ele>194.03</ele>
        <time>2019-09-05T14:24:02Z</time>
      </trkpt>
      <trkpt lat="44.13107" lon="1.40784">
        <ele>194.57</ele>
        <time>2019-09-05T14:24:10Z</time>
      </trkpt>
      <trkpt lat="44.13106" lon="1.40754">
        <ele>195.01</ele>
        <time>2019-09-05T14:24:18Z</time>
      </trkpt>
      <trkpt lat="44.13106" lon="1.40729">
        <ele>195.28</ele>
        <time>2019-09-05T14:24:24Z</time>
      </trkpt>
      <trkpt lat="44.13124" lon="1.40719">
        <ele>196.15</ele>
        <time>2019-09-05T14:24:40Z</time>
      </trkpt>
      <trkpt lat="44.13145" lon="1.40715">
        <ele>197.07</ele>
        <time>2019-09-05T14:24:52Z</time>
      </trkpt>
      <trkpt lat="44.13162" lon="1.40704">
        <ele>197.82</ele>
        <time>2019-09-05T14:25:02Z</time>
      </trkpt>
      <trkpt lat="44.13185" lon="1.40694">
        <ele>197.71</ele>
        <time>2019-09-05T14:25:10Z</time>
      </trkpt>
      <trkpt lat="44.13204" lon="1.40693">
        <ele>197.38</ele>
        <time>2019-09-05T14:25:18Z</time>
      </trkpt>
      <trkpt lat="44.13219" lon="1.40711">
        <ele>197.41</ele>
        <time>2019-09-05T14:25:42Z</time>
      </trkpt>
      <trkpt lat="44.13231" lon="1.40682">
        <ele>196.73</ele>
        <time>2019-09-05T14:29:18Z</time>
      </trkpt>
      <trkpt lat="44.13248" lon="1.4067">
        <ele>196.12</ele>
        <time>2019-09-05T14:29:26Z</time>
      </trkpt>
      <trkpt lat="44.13269" lon="1.40671">
        <ele>194.47</ele>
        <time>2019-09-05T14:29:34Z</time>
      </trkpt>
      <trkpt lat="44.13296" lon="1.40661">
        <ele>191.41</ele>
        <time>2019-09-05T14:29:40Z</time>
      </trkpt>
      <trkpt lat="44.13319" lon="1.40648">
        <ele>187.6</ele>
        <time>2019-09-05T14:29:46Z</time>
      </trkpt>
      <trkpt lat="44.13336" lon="1.40638">
        <ele>184.41</ele>
        <time>2019-09-05T14:29:50Z</time>
      </trkpt>
      <trkpt lat="44.13356" lon="1.40623">
        <ele>179.22</ele>
        <time>2019-09-05T14:29:56Z</time>
      </trkpt>
      <trkpt lat="44.13374" lon="1.40604">
        <ele>174.89</ele>
        <time>2019-09-05T14:30:04Z</time>
      </trkpt>
      <trkpt lat="44.13393" lon="1.40615">
        <ele>173.11</ele>
        <time>2019-09-05T14:30:08Z</time>
      </trkpt>
      <trkpt lat="44.1341" lon="1.40626">
        <ele>171.09</ele>
        <time>2019-09-05T14:30:14Z</time>
      </trkpt>
      <trkpt lat="44.13426" lon="1.40612">
        <ele>168.12</ele>
        <time>2019-09-05T14:30:22Z</time>
      </trkpt>
      <trkpt lat="44.13417" lon="1.40586">
        <ele>169.04</ele>
        <time>2019-09-05T14:30:58Z</time>
      </trkpt>
      <trkpt lat="44.13389" lon="1.40575">
        <ele>170.58</ele>
        <time>2019-09-05T14:31:04Z</time>
      </trkpt>
      <trkpt lat="44.13364" lon="1.4057">
        <ele>172.4</ele>
        <time>2019-09-05T14:31:10Z</time>
      </trkpt>
      <trkpt lat="44.13343" lon="1.40574">
        <ele>174.86</ele>
        <time>2019-09-05T14:31:16Z</time>
      </trkpt>
      <trkpt lat="44.13322" lon="1.40572">
        <ele>177.02</ele>
        <time>2019-09-05T14:31:22Z</time>
      </trkpt>
      <trkpt lat="44.13302" lon="1.40577">
        <ele>180.2</ele>
        <time>2019-09-05T14:31:30Z</time>
      </trkpt>
      <trkpt lat="44.1331" lon="1.40546">
        <ele>176.01</ele>
        <time>2019-09-05T14:32:02Z</time>
      </trkpt>
      <trkpt lat="44.13321" lon="1.4052">
        <ele>171.53</ele>
        <time>2019-09-05T14:32:08Z</time>
      </trkpt>
      <trkpt lat="44.13335" lon="1.40496">
        <ele>167.23</ele>
        <time>2019-09-05T14:32:14Z</time>
      </trkpt>
      <trkpt lat="44.13354" lon="1.40492">
        <ele>165.46</ele>
        <time>2019-09-05T14:32:18Z</time>
      </trkpt>
      <trkpt lat="44.13374" lon="1.40465">
        <ele>164.59</ele>
        <time>2019-09-05T14:32:24Z</time>
      </trkpt>
      <trkpt lat="44.13385" lon="1.4044">
        <ele>163.78</ele>
        <time>2019-09-05T14:32:28Z</time>
      </trkpt>
      <trkpt lat="44.13392" lon="1.40415">
        <ele>163.57</ele>
        <time>2019-09-05T14:32:34Z</time>
      </trkpt>
      <trkpt lat="44.13413" lon="1.40409">
        <ele>160.05</ele>
        <time>2019-09-05T14:34:04Z</time>
      </trkpt>
      <trkpt lat="44.13432" lon="1.4041">
        <ele>157.71</ele>
        <time>2019-09-05T14:34:10Z</time>
      </trkpt>
      <trkpt lat="44.13453" lon="1.40401">
        <ele>156.92</ele>
        <time>2019-09-05T14:34:16Z</time>
      </trkpt>
      <trkpt lat="44.13478" lon="1.40388">
        <ele>155.61</ele>
        <time>2019-09-05T14:34:22Z</time>
      </trkpt>
      <trkpt lat="44.135" lon="1.40378">
        <ele>153.86</ele>
        <time>2019-09-05T14:34:26Z</time>
      </trkpt>
      <trkpt lat="44.13522" lon="1.40369">
        <ele>154.77</ele>
        <time>2019-09-05T14:34:32Z</time>
      </trkpt>
      <trkpt lat="44.13533" lon="1.40389">
        <ele>153.78</ele>
        <time>2019-09-05T14:34:44Z</time>
      </trkpt>
      <trkpt lat="44.13544" lon="1.40414">
        <ele>152.72</ele>
        <time>2019-09-05T14:34:52Z</time>
      </trkpt>
      <trkpt lat="44.13557" lon="1.40436">
        <ele>153</ele>
        <time>2019-09-05T14:34:58Z</time>
      </trkpt>
      <trkpt lat="44.13569" lon="1.40457">
        <ele>152.52</ele>
        <time>2019-09-05T14:35:04Z</time>
      </trkpt>
      <trkpt lat="44.13582" lon="1.40479">
        <ele>151.13</ele>
        <time>2019-09-05T14:35:12Z</time>
      </trkpt>
      <trkpt lat="44.13589" lon="1.40502">
        <ele>150.1</ele>
        <time>2019-09-05T14:35:18Z</time>
      </trkpt>
      <trkpt lat="44.13594" lon="1.40528">
        <ele>149.77</ele>
        <time>2019-09-05T14:35:24Z</time>
      </trkpt>
      <trkpt lat="44.13599" lon="1.40556">
        <ele>149.56</ele>
        <time>2019-09-05T14:35:32Z</time>
      </trkpt>
      <trkpt lat="44.13598" lon="1.40582">
        <ele>149.09</ele>
        <time>2019-09-05T14:35:38Z</time>
      </trkpt>
      <trkpt lat="44.13596" lon="1.40607">
        <ele>147.75</ele>
        <time>2019-09-05T14:35:44Z</time>
      </trkpt>
      <trkpt lat="44.13596" lon="1.40638">
        <ele>146.22</ele>
        <time>2019-09-05T14:35:52Z</time>
      </trkpt>
      <trkpt lat="44.13602" lon="1.40669">
        <ele>145.09</ele>
        <time>2019-09-05T14:36:00Z</time>
      </trkpt>
      <trkpt lat="44.13611" lon="1.40693">
        <ele>145.03</ele>
        <time>2019-09-05T14:36:08Z</time>
      </trkpt>
      <trkpt lat="44.13624" lon="1.40711">
        <ele>144.4</ele>
        <time>2019-09-05T14:36:14Z</time>
      </trkpt>
      <trkpt lat="44.13636" lon="1.40735">
        <ele>142.56</ele>
        <time>2019-09-05T14:36:22Z</time>
      </trkpt>
      <trkpt lat="44.13648" lon="1.40763">
        <ele>140.36</ele>
        <time>2019-09-05T14:36:30Z</time>
      </trkpt>
      <trkpt lat="44.13661" lon="1.4079">
        <ele>138.61</ele>
        <time>2019-09-05T14:36:38Z</time>
      </trkpt>
      <trkpt lat="44.13666" lon="1.40819">
        <ele>137.44</ele>
        <time>2019-09-05T14:36:46Z</time>
      </trkpt>
      <trkpt lat="44.13671" lon="1.40845">
        <ele>137.7</ele>
        <time>2019-09-05T14:36:54Z</time>
      </trkpt>
      <trkpt lat="44.1367" lon="1.40873">
        <ele>137.97</ele>
        <time>2019-09-05T14:37:04Z</time>
      </trkpt>
      <trkpt lat="44.1366" lon="1.40898">
        <ele>138.47</ele>
        <time>2019-09-05T14:37:12Z</time>
      </trkpt>
      <trkpt lat="44.13654" lon="1.40923">
        <ele>139.19</ele>
        <time>2019-09-05T14:37:20Z</time>
      </trkpt>
      <trkpt lat="44.13669" lon="1.40939">
        <ele>138.34</ele>
        <time>2019-09-05T14:38:00Z</time>
      </trkpt>
      <trkpt lat="44.13672" lon="1.40965">
        <ele>138.95</ele>
        <time>2019-09-05T14:39:22Z</time>
      </trkpt>
      <trkpt lat="44.13667" lon="1.40989">
        <ele>138</ele>
        <time>2019-09-05T14:39:34Z</time>
      </trkpt>
      <trkpt lat="44.1366" lon="1.41015">
        <ele>138.87</ele>
        <time>2019-09-05T14:39:44Z</time>
      </trkpt>
      <trkpt lat="44.13655" lon="1.4104">
        <ele>139.8</ele>
        <time>2019-09-05T14:39:52Z</time>
      </trkpt>
      <trkpt lat="44.13651" lon="1.41066">
        <ele>140.62</ele>
        <time>2019-09-05T14:40:16Z</time>
      </trkpt>
      <trkpt lat="44.13646" lon="1.41094">
        <ele>141.19</ele>
        <time>2019-09-05T14:40:33Z</time>
      </trkpt>
      <trkpt lat="44.13638" lon="1.41119">
        <ele>141.4</ele>
        <time>2019-09-05T14:40:43Z</time>
      </trkpt>
      <trkpt lat="44.13629" lon="1.41147">
        <ele>141.3</ele>
        <time>2019-09-05T14:40:51Z</time>
      </trkpt>
      <trkpt lat="44.13619" lon="1.41175">
        <ele>140.87</ele>
        <time>2019-09-05T14:40:59Z</time>
      </trkpt>
      <trkpt lat="44.13628" lon="1.41198">
        <ele>140.98</ele>
        <time>2019-09-05T14:41:31Z</time>
      </trkpt>
      <trkpt lat="44.13611" lon="1.41207">
        <ele>139.86</ele>
        <time>2019-09-05T14:41:51Z</time>
      </trkpt>
      <trkpt lat="44.13594" lon="1.41216">
        <ele>138.25</ele>
        <time>2019-09-05T14:42:21Z</time>
      </trkpt>
      <trkpt lat="44.13578" lon="1.4123">
        <ele>136.65</ele>
        <time>2019-09-05T14:42:55Z</time>
      </trkpt>
      <trkpt lat="44.13581" lon="1.41255">
        <ele>135.04</ele>
        <time>2019-09-05T14:43:43Z</time>
      </trkpt>
      <trkpt lat="44.13569" lon="1.41276">
        <ele>135.19</ele>
        <time>2019-09-05T14:44:25Z</time>
      </trkpt>
      <trkpt lat="44.13555" lon="1.41293">
        <ele>135.51</ele>
        <time>2019-09-05T14:44:41Z</time>
      </trkpt>
      <trkpt lat="44.13553" lon="1.41318">
        <ele>135.26</ele>
        <time>2019-09-05T14:45:23Z</time>
      </trkpt>
      <trkpt lat="44.13565" lon="1.41339">
        <ele>134.54</ele>
        <time>2019-09-05T14:45:37Z</time>
      </trkpt>
      <trkpt lat="44.13569" lon="1.41367">
        <ele>133.73</ele>
        <time>2019-09-05T14:45:49Z</time>
      </trkpt>
      <trkpt lat="44.13573" lon="1.41394">
        <ele>132.77</ele>
        <time>2019-09-05T14:45:57Z</time>
      </trkpt>
      <trkpt lat="44.13576" lon="1.41422">
        <ele>131.73</ele>
        <time>2019-09-05T14:46:07Z</time>
      </trkpt>
      <trkpt lat="44.13578" lon="1.41447">
        <ele>130.94</ele>
        <time>2019-09-05T14:46:15Z</time>
      </trkpt>
      <trkpt lat="44.13578" lon="1.41472">
        <ele>130.36</ele>
        <time>2019-09-05T14:46:25Z</time>
      </trkpt>
      <trkpt lat="44.13576" lon="1.415">
        <ele>130.14</ele>
        <time>2019-09-05T14:46:37Z</time>
      </trkpt>
      <trkpt lat="44.13578" lon="1.41528">
        <ele>129.9</ele>
        <time>2019-09-05T14:46:51Z</time>
      </trkpt>
      <trkpt lat="44.13584" lon="1.4156">
        <ele>129.06</ele>
        <time>2019-09-05T14:47:01Z</time>
      </trkpt>
      <trkpt lat="44.1359" lon="1.41587">
        <ele>129.16</ele>
        <time>2019-09-05T14:47:11Z</time>
      </trkpt>
      <trkpt lat="44.13597" lon="1.41614">
        <ele>128.77</ele>
        <time>2019-09-05T14:47:17Z</time>
      </trkpt>
      <trkpt lat="44.13601" lon="1.41638">
        <ele>128.14</ele>
        <time>2019-09-05T14:47:27Z</time>
      </trkpt>
      <trkpt lat="44.13608" lon="1.41663">
        <ele>127.26</ele>
        <time>2019-09-05T14:47:37Z</time>
      </trkpt>
      <trkpt lat="44.13613" lon="1.41688">
        <ele>126.11</ele>
        <time>2019-09-05T14:47:47Z</time>
      </trkpt>
      <trkpt lat="44.13618" lon="1.41714">
        <ele>124.81</ele>
        <time>2019-09-05T14:47:55Z</time>
      </trkpt>
      <trkpt lat="44.13625" lon="1.4174">
        <ele>123.38</ele>
        <time>2019-09-05T14:48:05Z</time>
      </trkpt>
      <trkpt lat="44.13632" lon="1.41766">
        <ele>122.35</ele>
        <time>2019-09-05T14:48:15Z</time>
      </trkpt>
      <trkpt lat="44.13654" lon="1.4177">
        <ele>121.14</ele>
        <time>2019-09-05T14:49:19Z</time>
      </trkpt>
      <trkpt lat="44.13674" lon="1.41781">
        <ele>120.39</ele>
        <time>2019-09-05T14:49:27Z</time>
      </trkpt>
      <trkpt lat="44.13682" lon="1.41807">
        <ele>119.94</ele>
        <time>2019-09-05T14:49:37Z</time>
      </trkpt>
      <trkpt lat="44.13691" lon="1.41829">
        <ele>119.67</ele>
        <time>2019-09-05T14:49:45Z</time>
      </trkpt>
      <trkpt lat="44.13693" lon="1.41856">
        <ele>119.71</ele>
        <time>2019-09-05T14:49:55Z</time>
      </trkpt>
      <trkpt lat="44.13697" lon="1.41881">
        <ele>119.93</ele>
        <time>2019-09-05T14:50:03Z</time>
      </trkpt>
      <trkpt lat="44.1371" lon="1.41901">
        <ele>120.46</ele>
        <time>2019-09-05T14:50:13Z</time>
      </trkpt>
      <trkpt lat="44.1373" lon="1.41908">
        <ele>121.19</ele>
        <time>2019-09-05T14:50:27Z</time>
      </trkpt>
      <trkpt lat="44.13749" lon="1.41918">
        <ele>121.97</ele>
        <time>2019-09-05T14:50:39Z</time>
      </trkpt>
      <trkpt lat="44.13766" lon="1.41928">
        <ele>123.77</ele>
        <time>2019-09-05T14:50:53Z</time>
      </trkpt>
      <trkpt lat="44.13787" lon="1.41932">
        <ele>125.96</ele>
        <time>2019-09-05T14:51:07Z</time>
      </trkpt>
      <trkpt lat="44.13806" lon="1.41944">
        <ele>128.39</ele>
        <time>2019-09-05T14:51:21Z</time>
      </trkpt>
      <trkpt lat="44.13824" lon="1.41954">
        <ele>130.75</ele>
        <time>2019-09-05T14:51:39Z</time>
      </trkpt>
      <trkpt lat="44.13838" lon="1.41971">
        <ele>133.22</ele>
        <time>2019-09-05T14:51:57Z</time>
      </trkpt>
      <trkpt lat="44.13849" lon="1.41993">
        <ele>135.75</ele>
        <time>2019-09-05T14:52:13Z</time>
      </trkpt>
      <trkpt lat="44.13861" lon="1.42011">
        <ele>138.37</ele>
        <time>2019-09-05T14:52:29Z</time>
      </trkpt>
      <trkpt lat="44.13867" lon="1.42037">
        <ele>140.65</ele>
        <time>2019-09-05T14:52:45Z</time>
      </trkpt>
      <trkpt lat="44.13874" lon="1.42066">
        <ele>143.3</ele>
        <time>2019-09-05T14:52:57Z</time>
      </trkpt>
      <trkpt lat="44.13889" lon="1.42081">
        <ele>146.27</ele>
        <time>2019-09-05T14:53:17Z</time>
      </trkpt>
      <trkpt lat="44.13898" lon="1.42105">
        <ele>149.47</ele>
        <time>2019-09-05T14:53:37Z</time>
      </trkpt>
      <trkpt lat="44.13912" lon="1.42124">
        <ele>152.86</ele>
        <time>2019-09-05T14:53:53Z</time>
      </trkpt>
      <trkpt lat="44.13927" lon="1.42142">
        <ele>156.62</ele>
        <time>2019-09-05T14:54:11Z</time>
      </trkpt>
      <trkpt lat="44.1394" lon="1.42161">
        <ele>159.94</ele>
        <time>2019-09-05T14:54:27Z</time>
      </trkpt>
      <trkpt lat="44.13953" lon="1.42179">
        <ele>162.32</ele>
        <time>2019-09-05T14:54:49Z</time>
      </trkpt>
      <trkpt lat="44.13961" lon="1.42201">
        <ele>163.48</ele>
        <time>2019-09-05T14:55:07Z</time>
      </trkpt>
      <trkpt lat="44.13975" lon="1.42218">
        <ele>164.8</ele>
        <time>2019-09-05T14:56:37Z</time>
      </trkpt>
      <trkpt lat="44.13995" lon="1.42217">
        <ele>166.7</ele>
        <time>2019-09-05T14:56:51Z</time>
      </trkpt>
      <trkpt lat="44.14012" lon="1.42204">
        <ele>168.7</ele>
        <time>2019-09-05T14:57:03Z</time>
      </trkpt>
      <trkpt lat="44.14019" lon="1.42178">
        <ele>171.2</ele>
        <time>2019-09-05T14:57:19Z</time>
      </trkpt>
      <trkpt lat="44.14023" lon="1.42151">
        <ele>172.72</ele>
        <time>2019-09-05T14:57:33Z</time>
      </trkpt>
      <trkpt lat="44.14036" lon="1.42133">
        <ele>175.49</ele>
        <time>2019-09-05T14:57:43Z</time>
      </trkpt>
      <trkpt lat="44.14056" lon="1.42136">
        <ele>179.54</ele>
        <time>2019-09-05T14:57:57Z</time>
      </trkpt>
      <trkpt lat="44.14076" lon="1.42142">
        <ele>183.29</ele>
        <time>2019-09-05T14:58:07Z</time>
      </trkpt>
      <trkpt lat="44.14093" lon="1.42153">
        <ele>184.32</ele>
        <time>2019-09-05T14:58:17Z</time>
      </trkpt>
      <trkpt lat="44.14112" lon="1.42156">
        <ele>185.7</ele>
        <time>2019-09-05T14:58:29Z</time>
      </trkpt>
      <trkpt lat="44.1413" lon="1.42161">
        <ele>186.7</ele>
        <time>2019-09-05T14:58:43Z</time>
      </trkpt>
      <trkpt lat="44.1415" lon="1.42167">
        <ele>187.57</ele>
        <time>2019-09-05T14:58:53Z</time>
      </trkpt>
      <trkpt lat="44.14169" lon="1.42167">
        <ele>189.22</ele>
        <time>2019-09-05T14:59:01Z</time>
      </trkpt>
      <trkpt lat="44.1419" lon="1.42168">
        <ele>191.6</ele>
        <time>2019-09-05T14:59:11Z</time>
      </trkpt>
      <trkpt lat="44.14209" lon="1.42166">
        <ele>194.18</ele>
        <time>2019-09-05T14:59:21Z</time>
      </trkpt>
      <trkpt lat="44.1423" lon="1.42162">
        <ele>196.98</ele>
        <time>2019-09-05T14:59:33Z</time>
      </trkpt>
      <trkpt lat="44.14248" lon="1.42173">
        <ele>197.99</ele>
        <time>2019-09-05T14:59:43Z</time>
      </trkpt>
      <trkpt lat="44.14265" lon="1.42189">
        <ele>197.66</ele>
        <time>2019-09-05T14:59:51Z</time>
      </trkpt>
      <trkpt lat="44.14283" lon="1.42205">
        <ele>197.54</ele>
        <time>2019-09-05T14:59:59Z</time>
      </trkpt>
      <trkpt lat="44.14291" lon="1.42233">
        <ele>195.52</ele>
        <time>2019-09-05T15:00:09Z</time>
      </trkpt>
      <trkpt lat="44.14295" lon="1.42258">
        <ele>194.05</ele>
        <time>2019-09-05T15:00:16Z</time>
      </trkpt>
      <trkpt lat="44.14305" lon="1.42236">
        <ele>196.83</ele>
        <time>2019-09-05T15:00:38Z</time>
      </trkpt>
    </trkseg>
  </trk>
</gpx>